Time;durP1;ratioP1;P1;durP2;ratioP2;P2;SDS_P1;SDS_P2;PMS_P1;PMS_P2;Temp;Humidity;BMP_temperature;BMP_pressure;BME280_temperature;BME280_humidity;BME280_pressure;Samples;Min_cycle;Max_cycle;Signal;HPM_P1;HPM_P2
2021/12/11 00:02:15;;;;;;;39.78;22.23;;;0.30;99.80;;;;;;4997062;28;20124;-75
2021/12/11 00:04:43;;;;;;;38.28;21.35;;;0.30;99.80;;;;;;4980818;28;20045;-75
2021/12/11 00:07:16;;;;;;;26.23;16.45;;;0.20;99.90;;;;;;4996952;28;20409;-75
2021/12/11 00:09:48;;;;;;;24.20;15.57;;;0.20;99.90;;;;;;4980808;28;20437;-75
2021/12/11 00:12:20;;;;;;;20.92;14.60;;;0.20;99.90;;;;;;4997074;28;20137;-75
2021/12/11 00:14:59;;;;;;;23.70;15.13;;;0.20;99.90;;;;;;4996679;28;20405;-75
2021/12/11 00:17:33;;;;;;;20.45;14.02;;;0.10;99.90;;;;;;4980822;28;20112;-75
2021/12/11 00:20:00;;;;;;;21.50;13.23;;;0.10;99.90;;;;;;4996833;28;20064;-75
2021/12/11 00:22:29;;;;;;;21.75;14.07;;;0.10;99.90;;;;;;4996711;28;20041;-75
2021/12/11 00:25:08;;;;;;;23.77;14.32;;;0.10;99.90;;;;;;4996620;28;20042;-75
2021/12/11 00:27:36;;;;;;;22.17;14.57;;;0.10;99.80;;;;;;4996628;28;20038;-75
2021/12/11 00:30:04;;;;;;;20.85;14.25;;;0.00;99.80;;;;;;4980388;28;20049;-75
2021/12/11 00:32:34;;;;;;;18.63;14.13;;;0.00;99.80;;;;;;4980446;28;20105;-73
2021/12/11 00:35:09;;;;;;;20.90;13.93;;;0.10;99.90;;;;;;4996700;28;20107;-73
2021/12/11 00:37:35;;;;;;;23.60;14.88;;;0.10;99.80;;;;;;4996496;28;20053;-73
2021/12/11 00:40:15;;;;;;;22.70;15.25;;;0.10;99.80;;;;;;4996398;28;20042;-73
2021/12/11 00:42:51;;;;;;;23.27;16.40;;;0.10;99.80;;;;;;4996261;28;20049;-73
2021/12/11 00:45:23;;;;;;;19.88;15.50;;;0.10;99.90;;;;;;4996961;28;20038;-74
2021/12/11 00:47:55;;;;;;;23.52;14.80;;;0.00;99.80;;;;;;4996292;28;20042;-74
2021/12/11 00:50:25;;;;;;;23.08;14.70;;;0.10;99.70;;;;;;4996560;28;20041;-74
2021/12/11 00:52:58;;;;;;;21.58;14.90;;;0.00;99.70;;;;;;4996044;28;20042;-74
2021/12/11 00:55:32;;;;;;;20.55;13.85;;;0.00;99.70;;;;;;4996349;28;20077;-74
2021/12/11 00:58:18;;;;;;;20.75;13.88;;;0.00;99.70;;;;;;4996372;28;20045;-74
2021/12/11 01:01:06;;;;;;;18.27;13.10;;;0.00;99.80;;;;;;4996067;28;20041;-74
2021/12/11 01:03:35;;;;;;;20.30;13.98;;;0.00;99.90;;;;;;4980006;28;20065;-74
2021/12/11 01:06:12;;;;;;;16.40;12.00;;;0.00;99.90;;;;;;4996060;28;20042;-74
2021/12/11 01:08:41;;;;;;;16.52;12.90;;;0.00;99.80;;;;;;4995728;28;20046;-74
2021/12/11 01:11:16;;;;;;;20.52;13.20;;;0.00;99.90;;;;;;4995560;28;20045;-74
2021/12/11 01:13:48;;;;;;;18.17;12.13;;;0.00;99.90;;;;;;5011977;28;20437;-74
2021/12/11 01:16:15;;;;;;;22.23;13.55;;;0.00;99.80;;;;;;4979723;28;20493;-74
2021/12/11 01:18:46;;;;;;;18.35;13.25;;;-0.10;99.90;;;;;;4995789;28;20410;-74
2021/12/11 01:26:34;;;;;;;14.18;11.30;;;0.00;99.90;;;;;;4996022;28;20087;-74
2021/12/11 01:29:01;;;;;;;16.15;12.40;;;-0.10;99.90;;;;;;4996004;28;20044;-74
2021/12/11 01:31:27;;;;;;;17.10;12.40;;;0.00;99.90;;;;;;4995734;28;20069;-74
2021/12/11 01:33:55;;;;;;;16.25;12.07;;;0.00;99.90;;;;;;4979339;28;20042;-74
2021/12/11 01:36:22;;;;;;;18.10;12.30;;;0.00;99.90;;;;;;4995666;28;20042;-74
2021/12/11 01:38:59;;;;;;;17.70;13.05;;;-0.10;99.90;;;;;;4995594;28;20038;-74
2021/12/11 01:41:25;;;;;;;25.00;15.40;;;0.00;99.90;;;;;;4995637;28;20080;-74
2021/12/11 01:43:55;;;;;;;24.35;14.88;;;0.00;99.90;;;;;;4995766;28;20081;-74
2021/12/11 01:46:25;;;;;;;21.55;14.52;;;-0.10;99.90;;;;;;4995885;28;20125;-74
2021/12/11 01:48:58;;;;;;;20.88;14.50;;;-0.10;99.90;;;;;;4995563;28;20042;-74
2021/12/11 01:51:35;;;;;;;23.83;15.73;;;-0.10;99.80;;;;;;4995945;28;20518;-74
2021/12/11 01:54:28;;;;;;;22.90;15.73;;;-0.20;99.80;;;;;;4995485;28;20096;-74
2021/12/11 01:57:02;;;;;;;22.63;14.23;;;-0.20;99.80;;;;;;4983531;28;20424;-74
2021/12/11 01:59:39;;;;;;;19.27;13.80;;;-0.20;99.80;;;;;;4995340;28;20124;-74
2021/12/11 02:02:37;;;;;;;21.58;15.00;;;-0.20;99.80;;;;;;4979302;28;20046;-74
2021/12/11 02:05:05;;;;;;;21.40;15.20;;;-0.20;99.70;;;;;;4990809;28;20049;-74
2021/12/11 02:07:40;;;;;;;23.60;14.85;;;-0.30;99.70;;;;;;4995455;28;20120;-74
2021/12/11 02:10:14;;;;;;;21.52;15.25;;;-0.30;99.70;;;;;;4979504;28;20104;-74
2021/12/11 02:12:43;;;;;;;23.20;15.35;;;-0.30;99.70;;;;;;4995292;28;20042;-74
2021/12/11 02:15:15;;;;;;;22.20;14.98;;;-0.20;99.70;;;;;;4979177;28;20038;-74
2021/12/11 02:17:52;;;;;;;22.25;15.10;;;-0.30;99.80;;;;;;4995634;28;20038;-74
2021/12/11 02:20:36;;;;;;;20.02;15.15;;;-0.30;99.60;;;;;;4995620;28;20117;-74
2021/12/11 02:23:02;;;;;;;;;;;-0.30;99.70;;;;;;4999591;28;20057;-74
2021/12/11 02:25:38;;;;;;;20.85;14.25;;;-0.40;99.60;;;;;;4998941;28;19925;-74
2021/12/11 02:28:37;;;;;;;24.15;15.07;;;-0.40;99.80;;;;;;4998894;28;20421;-74
2021/12/11 02:31:19;;;;;;;22.67;14.82;;;-0.40;99.70;;;;;;4998828;28;20050;-74
2021/12/11 02:33:52;;;;;;;22.55;15.50;;;-0.40;99.80;;;;;;4998647;28;20042;-74
2021/12/11 02:36:35;;;;;;;23.98;15.25;;;-0.40;99.70;;;;;;4998728;28;20045;-74
2021/12/11 02:39:32;;;;;;;19.67;14.25;;;-0.40;99.70;;;;;;4998972;28;20138;-74
2021/12/11 02:42:19;;;;;;;22.88;15.57;;;-0.40;99.60;;;;;;4998565;28;20053;-74
2021/12/11 02:44:56;;;;;;;21.10;14.88;;;-0.50;99.80;;;;;;4998590;28;20042;-74
2021/12/11 02:47:29;;;;;;;24.23;14.98;;;-0.50;99.90;;;;;;4998568;28;20124;-74
2021/12/11 02:50:05;;;;;;;23.17;16.75;;;-0.50;99.90;;;;;;4998450;28;20044;-74
2021/12/11 02:52:54;;;;;;;21.15;16.27;;;-0.50;99.90;;;;;;4982304;28;20489;-74
2021/12/11 02:55:44;;;;;;;29.08;17.50;;;-0.50;99.90;;;;;;4998395;28;20461;-74
2021/12/11 02:58:19;;;;;;;25.15;15.55;;;-0.50;99.90;;;;;;4998613;28;20034;-74
2021/12/11 03:00:55;;;;;;;30.77;15.35;;;-0.50;99.90;;;;;;4998296;28;20038;-74
2021/12/11 03:03:31;;;;;;;24.20;15.25;;;-0.60;99.90;;;;;;4998179;28;20042;-74
2021/12/11 03:06:16;;;;;;;21.15;14.43;;;-0.60;99.90;;;;;;4998440;28;20084;-74
2021/12/11 03:08:42;;;;;;;20.02;14.48;;;-0.60;99.90;;;;;;4998352;28;20536;-74
2021/12/11 03:11:12;;;;;;;18.73;13.63;;;-0.60;99.90;;;;;;4997964;28;20042;-74
2021/12/11 03:13:39;;;;;;;18.05;12.25;;;-0.60;99.90;;;;;;4981609;28;20056;-74
2021/12/11 03:16:09;;;;;;;22.52;13.38;;;-0.60;99.90;;;;;;4998186;28;20064;-74
2021/12/11 03:18:36;;;;;;;17.88;11.85;;;-0.60;99.90;;;;;;4997842;28;20046;-74
2021/12/11 03:21:03;;;;;;;18.08;12.40;;;-0.50;99.90;;;;;;4997857;28;20084;-74
2021/12/11 03:23:28;;;;;;;19.55;13.45;;;-0.50;99.90;;;;;;4981551;28;20038;-74
2021/12/11 03:25:54;;;;;;;21.00;13.98;;;-0.50;99.90;;;;;;4998000;28;20052;-74
2021/12/11 03:28:21;;;;;;;17.88;13.13;;;-0.50;99.90;;;;;;4998057;28;20069;-74
2021/12/11 03:30:56;;;;;;;18.60;13.13;;;-0.50;99.90;;;;;;4997700;28;20125;-74
2021/12/11 03:33:25;;;;;;;19.73;13.00;;;-0.50;99.90;;;;;;4996757;28;20049;-74
2021/12/11 03:35:52;;;;;;;18.85;12.20;;;-0.50;99.90;;;;;;4997624;28;20042;-74
2021/12/11 03:38:18;;;;;;;19.08;13.75;;;-0.60;99.90;;;;;;4997819;28;20399;-74
2021/12/11 03:40:44;;;;;;;21.30;13.38;;;-0.60;99.90;;;;;;4997477;28;20506;-74
2021/12/11 03:43:14;;;;;;;21.83;14.40;;;-0.60;99.90;;;;;;4997646;28;20042;-74
2021/12/11 03:45:42;;;;;;;19.30;13.90;;;-0.60;99.90;;;;;;4981472;28;20042;-74
2021/12/11 03:48:23;;;;;;;21.10;14.23;;;-0.60;99.90;;;;;;4997339;28;20176;-74
2021/12/11 03:50:51;;;;;;;21.45;14.13;;;-0.60;99.90;;;;;;4997408;28;20144;-74
2021/12/11 03:53:18;;;;;;;18.60;13.25;;;-0.60;99.90;;;;;;4997150;28;20045;-74
2021/12/11 03:55:58;;;;;;;19.88;14.38;;;-0.60;99.90;;;;;;4997286;28;20054;-74
2021/12/11 03:58:24;;;;;;;19.17;13.23;;;-0.60;99.90;;;;;;4997192;28;20038;-74
2021/12/11 04:01:01;;;;;;;20.65;12.75;;;-0.60;99.90;;;;;;4997208;28;20042;-74
2021/12/11 04:03:31;;;;;;;18.50;12.10;;;-0.60;99.90;;;;;;4997058;28;20045;-74
2021/12/11 04:06:00;;;;;;;21.67;13.60;;;-0.70;99.90;;;;;;4997335;28;20111;-74
2021/12/11 04:08:28;;;;;;;20.13;13.88;;;-0.60;99.90;;;;;;4980726;28;20045;-74
2021/12/11 04:10:55;;;;;;;20.50;13.43;;;-0.60;99.90;;;;;;4996981;28;20038;-73
2021/12/11 04:13:22;;;;;;;21.83;12.70;;;-0.60;99.90;;;;;;4997029;28;20456;-74
2021/12/11 04:15:50;;;;;;;18.33;12.02;;;-0.70;99.90;;;;;;4997181;28;20048;-75
2021/12/11 04:18:16;;;;;;;20.60;12.55;;;-0.60;99.90;;;;;;4996803;28;20045;-75
2021/12/11 04:20:44;;;;;;;15.65;11.75;;;-0.70;99.90;;;;;;4980559;28;20497;-75
2021/12/11 04:23:11;;;;;;;19.98;12.98;;;-0.60;99.90;;;;;;4996876;28;20033;-74
2021/12/11 04:25:45;;;;;;;18.33;13.40;;;-0.60;99.90;;;;;;4996899;28;20072;-75
2021/12/11 04:28:11;;;;;;;20.45;13.75;;;-0.60;99.90;;;;;;4996616;28;20409;-75
2021/12/11 04:30:39;;;;;;;21.23;13.68;;;-0.60;99.90;;;;;;4996579;28;20042;-74
2021/12/11 04:33:05;;;;;;;24.10;14.98;;;-0.60;99.90;;;;;;4980374;28;20042;-75
2021/12/11 04:35:31;;;;;;;19.88;14.35;;;-0.70;99.90;;;;;;4996528;28;20030;-75
2021/12/11 04:38:00;;;;;;;25.92;14.63;;;-0.70;99.90;;;;;;4980348;28;20410;-75
2021/12/11 04:40:32;;;;;;;24.02;15.90;;;-0.70;99.90;;;;;;4980183;28;20034;-75
2021/12/11 04:43:05;;;;;;;25.75;15.77;;;-0.70;99.90;;;;;;4996339;28;20463;-74
2021/12/11 04:45:40;;;;;;;26.52;15.15;;;-0.70;99.90;;;;;;4996414;28;20057;-75
2021/12/11 04:48:24;;;;;;;28.27;16.73;;;-0.60;99.90;;;;;;4996587;28;20073;-75
2021/12/11 04:50:58;;;;;;;22.92;16.50;;;-0.70;99.90;;;;;;4996525;28;20049;-75
2021/12/11 04:53:50;;;;;;;23.40;16.45;;;-0.70;99.90;;;;;;4996101;28;20057;-74
2021/12/11 05:07:03;;;;;;;22.45;15.40;;;-0.70;99.90;;;;;;4995990;28;20498;-75
2021/12/11 05:09:37;;;;;;;24.70;15.77;;;-0.70;99.90;;;;;;4995989;28;20092;-74
2021/12/11 05:12:17;;;;;;;25.50;16.38;;;-0.60;99.90;;;;;;4995904;28;20088;-75
2021/12/11 05:14:44;;;;;;;22.98;16.20;;;-0.60;99.90;;;;;;4995985;28;20486;-74
2021/12/11 05:17:11;;;;;;;23.58;15.70;;;-0.50;99.90;;;;;;4996393;28;20083;-74
2021/12/11 05:19:38;;;;;;;23.95;15.63;;;-0.50;99.90;;;;;;4979685;28;20038;-74
2021/12/11 05:22:05;;;;;;;25.25;17.25;;;-0.50;99.90;;;;;;4995771;28;20465;-74
2021/12/11 05:24:32;;;;;;;26.30;16.75;;;-0.50;99.90;;;;;;4995664;28;20034;-74
2021/12/11 05:26:58;;;;;;;22.63;15.85;;;-0.50;99.90;;;;;;4995805;28;20042;-75
2021/12/11 05:29:24;;;;;;;26.10;16.95;;;-0.50;99.90;;;;;;4995704;28;20042;-75
2021/12/11 05:31:50;;;;;;;22.08;15.63;;;-0.50;99.90;;;;;;4996222;28;20073;-74
2021/12/11 05:34:16;;;;;;;24.88;16.58;;;-0.50;99.90;;;;;;4995615;28;20049;-75
2021/12/11 05:36:42;;;;;;;22.33;15.85;;;-0.50;99.90;;;;;;4995635;28;20560;-75
2021/12/11 05:39:17;;;;;;;27.88;16.98;;;-0.50;99.90;;;;;;4995638;28;20073;-75
2021/12/11 05:41:44;;;;;;;22.08;16.35;;;-0.50;99.90;;;;;;4996040;28;20050;-75
2021/12/11 05:44:12;;;;;;;27.75;17.70;;;-0.60;99.90;;;;;;4995747;28;20465;-75
2021/12/11 05:46:38;;;;;;;26.63;16.85;;;-0.50;99.90;;;;;;4995858;28;20068;-75
2021/12/11 05:49:05;;;;;;;25.88;16.75;;;-0.50;99.90;;;;;;4995520;28;20585;-75
2021/12/11 05:51:38;;;;;;;23.00;16.08;;;-0.60;99.90;;;;;;4979474;28;20395;-75
2021/12/11 05:54:06;;;;;;;24.58;16.30;;;-0.60;99.90;;;;;;4995489;28;20038;-74
2021/12/11 05:56:35;;;;;;;25.50;17.38;;;-0.70;99.90;;;;;;4998075;28;20176;-75
2021/12/11 05:59:03;;;;;;;26.95;16.50;;;-0.60;99.90;;;;;;4999375;28;20045;-75
2021/12/11 06:01:39;;;;;;;27.30;17.40;;;-0.60;99.90;;;;;;4999433;28;20037;-74
2021/12/11 06:04:10;;;;;;;26.15;17.05;;;-0.60;99.90;;;;;;4999590;28;20050;-74
2021/12/11 06:06:37;;;;;;;25.55;16.83;;;-0.70;99.90;;;;;;5015628;28;20046;-74
2021/12/11 06:09:05;;;;;;;23.23;15.23;;;-0.70;99.90;;;;;;4983062;28;20096;-75
2021/12/11 06:11:31;;;;;;;24.23;16.08;;;-0.70;99.90;;;;;;4999146;28;20502;-75
2021/12/11 06:13:57;;;;;;;20.77;15.23;;;-0.70;99.90;;;;;;4998886;28;20038;-75
2021/12/11 06:16:23;;;;;;;26.85;16.30;;;-0.70;99.90;;;;;;4999372;28;20046;-74
2021/12/11 06:18:48;;;;;;;23.98;16.02;;;-0.70;99.90;;;;;;4998977;28;20405;-74
2021/12/11 06:21:15;;;;;;;23.52;16.00;;;-0.70;99.90;;;;;;4982805;28;20049;-75
2021/12/11 06:23:40;;;;;;;28.95;16.45;;;-0.80;99.90;;;;;;4999191;28;20132;-74
2021/12/11 06:26:06;;;;;;;25.35;16.08;;;-0.80;99.90;;;;;;4998916;28;20570;-75
2021/12/11 06:28:33;;;;;;;26.90;16.58;;;-0.80;99.90;;;;;;4998878;28;20124;-75
2021/12/11 06:30:59;;;;;;;23.35;15.57;;;-0.80;99.90;;;;;;4998849;28;20048;-75
2021/12/11 06:33:27;;;;;;;24.33;16.48;;;-0.90;99.90;;;;;;4998668;28;20045;-74
2021/12/11 06:36:01;;;;;;;22.98;16.15;;;-0.90;99.90;;;;;;4998685;28;20124;-75
2021/12/11 06:38:30;;;;;;;23.17;15.50;;;-0.80;99.90;;;;;;4998698;28;20044;-75
2021/12/11 06:40:56;;;;;;;21.70;15.43;;;-0.80;99.90;;;;;;4998910;28;20046;-74
2021/12/11 06:43:23;;;;;;;19.50;14.18;;;-0.80;99.90;;;;;;4998532;28;20049;-74
2021/12/11 06:45:49;;;;;;;23.65;14.77;;;-0.80;99.90;;;;;;4998535;28;20038;-75
2021/12/11 06:48:16;;;;;;;22.55;14.60;;;-0.80;99.90;;;;;;4998499;28;20049;-75
2021/12/11 06:50:43;;;;;;;21.25;14.43;;;-0.80;99.90;;;;;;4998748;28;20060;-75
2021/12/11 06:53:14;;;;;;;22.27;16.20;;;-0.80;99.90;;;;;;4998239;28;20069;-74
2021/12/11 06:55:40;;;;;;;24.98;15.68;;;-0.90;99.90;;;;;;4998411;28;20038;-75
2021/12/11 06:58:06;;;;;;;21.67;15.68;;;-0.80;99.90;;;;;;4998588;28;20052;-74
2021/12/11 07:00:32;;;;;;;29.60;17.88;;;-0.90;99.90;;;;;;4982055;28;20434;-74
2021/12/11 07:02:58;;;;;;;24.85;16.85;;;-0.90;99.90;;;;;;4998165;28;20413;-74
2021/12/11 07:05:24;;;;;;;25.90;17.13;;;-0.80;99.90;;;;;;4998470;28;20037;-72
2021/12/11 07:07:50;;;;;;;25.73;17.02;;;-0.90;99.90;;;;;;4997251;28;20506;-72
2021/12/11 07:10:19;;;;;;;25.10;16.80;;;-0.90;99.90;;;;;;4998442;28;20077;-72
2021/12/11 07:12:47;;;;;;;23.08;15.88;;;-0.80;99.90;;;;;;4997835;28;20052;-72
2021/12/11 07:15:13;;;;;;;27.08;16.80;;;-0.90;99.90;;;;;;4997948;28;20141;-72
2021/12/11 07:17:39;;;;;;;25.45;17.02;;;-0.80;99.90;;;;;;4997914;28;20120;-73
2021/12/11 07:20:07;;;;;;;23.58;15.73;;;-0.90;99.90;;;;;;4998027;28;20037;-73
2021/12/11 07:22:34;;;;;;;19.20;14.00;;;-0.80;99.90;;;;;;4998092;28;20117;-73
2021/12/11 07:25:07;;;;;;;25.65;15.82;;;-0.90;99.90;;;;;;4997733;28;20045;-73
2021/12/11 07:27:34;;;;;;;19.60;14.30;;;-0.90;99.90;;;;;;4997884;28;20554;-72
2021/12/11 07:30:00;;;;;;;23.13;15.57;;;-0.90;99.90;;;;;;4997800;28;20048;-72
2021/12/11 07:32:25;;;;;;;23.42;16.00;;;-0.90;99.90;;;;;;4997936;28;20125;-72
2021/12/11 07:34:51;;;;;;;22.98;15.77;;;-1.00;99.90;;;;;;4997732;28;20034;-72
2021/12/11 07:37:17;;;;;;;23.10;15.57;;;-1.00;99.90;;;;;;4997670;28;20037;-73
2021/12/11 07:39:43;;;;;;;19.73;15.57;;;-1.00;99.90;;;;;;4997605;28;20040;-72
2021/12/11 07:42:09;;;;;;;22.05;15.25;;;-1.00;99.90;;;;;;4997498;28;20033;-72
2021/12/11 07:44:35;;;;;;;21.15;15.45;;;-1.00;99.90;;;;;;4997452;28;20053;-72
2021/12/11 07:47:01;;;;;;;25.65;16.38;;;-1.00;99.90;;;;;;4997672;28;20034;-72
2021/12/11 07:49:27;;;;;;;29.23;16.60;;;-1.10;99.90;;;;;;4981219;28;20034;-72
2021/12/11 07:51:52;;;;;;;22.05;15.80;;;-1.10;99.90;;;;;;4981174;28;20029;-72
2021/12/11 07:54:19;;;;;;;22.50;15.73;;;-1.10;99.90;;;;;;4997395;28;20177;-72
2021/12/11 07:56:46;;;;;;;21.55;14.95;;;-1.10;99.90;;;;;;4997362;28;20045;-72
2021/12/11 07:59:12;;;;;;;21.88;15.57;;;-1.10;99.90;;;;;;4998053;28;20121;-72
2021/12/11 08:01:42;;;;;;;25.92;16.88;;;-1.00;99.90;;;;;;4997216;28;20497;-72
2021/12/11 08:04:08;;;;;;;26.90;16.27;;;-1.10;99.90;;;;;;4997106;28;20045;-72
2021/12/11 08:06:37;;;;;;;22.92;16.48;;;-1.10;99.90;;;;;;4997129;28;20042;-73
2021/12/11 08:09:06;;;;;;;25.17;16.17;;;-1.00;99.90;;;;;;4997016;28;20038;-73
2021/12/11 08:11:32;;;;;;;25.10;16.90;;;-1.00;99.90;;;;;;4997222;28;20417;-72
2021/12/11 08:13:59;;;;;;;22.77;16.45;;;-1.00;99.90;;;;;;4996699;28;20099;-72
2021/12/11 08:16:32;;;;;;;25.25;16.48;;;-1.00;99.90;;;;;;4996784;28;20030;-72
2021/12/11 08:19:00;;;;;;;24.63;15.50;;;-1.00;99.90;;;;;;4996541;28;20034;-72
2021/12/11 08:21:25;;;;;;;23.45;15.82;;;-1.00;99.90;;;;;;4997076;28;20045;-72
2021/12/11 08:23:54;;;;;;;22.00;15.52;;;-0.90;99.90;;;;;;4997079;28;20398;-72
2021/12/11 08:26:22;;;;;;;20.73;15.13;;;-0.90;99.90;;;;;;4996728;28;20510;-72
2021/12/11 08:28:50;;;;;;;23.85;16.25;;;-0.90;99.90;;;;;;4980446;28;20046;-72
2021/12/11 08:31:18;;;;;;;21.13;15.18;;;-0.90;99.90;;;;;;4996686;28;20045;-72
2021/12/11 08:33:44;;;;;;;28.85;17.58;;;-0.80;99.90;;;;;;4980731;28;20088;-73
2021/12/11 08:36:10;;;;;;;22.13;15.95;;;-0.80;99.90;;;;;;4997093;28;20040;-73
2021/12/11 08:38:36;;;;;;;22.83;16.00;;;-0.70;99.90;;;;;;4996668;28;20124;-72
2021/12/11 08:41:05;;;;;;;23.02;16.42;;;-0.70;99.90;;;;;;4980664;28;20038;-73
2021/12/11 08:43:32;;;;;;;25.05;16.95;;;-0.70;99.90;;;;;;4996698;28;20053;-73
2021/12/11 08:46:09;;;;;;;27.52;17.92;;;-0.60;99.90;;;;;;4996513;28;20053;-73
2021/12/11 08:48:38;;;;;;;29.92;19.63;;;-0.60;99.90;;;;;;4980363;28;20088;-73
2021/12/11 08:51:19;;;;;;;27.10;18.83;;;-0.50;99.90;;;;;;4996359;28;20052;-72
2021/12/11 08:53:45;;;;;;;29.20;18.55;;;-0.40;99.90;;;;;;4996134;28;20108;-72
2021/12/11 08:56:11;;;;;;;26.48;18.02;;;-0.40;99.90;;;;;;4980269;28;20388;-72
2021/12/11 08:58:38;;;;;;;29.30;19.48;;;-0.30;99.90;;;;;;4996235;28;20049;-72
2021/12/11 09:01:24;;;;;;;31.60;19.25;;;-0.30;99.90;;;;;;4996218;28;20042;-72
2021/12/11 09:04:10;;;;;;;28.88;19.70;;;-0.30;99.90;;;;;;4996063;28;20042;-72
2021/12/11 09:06:56;;;;;;;30.50;18.60;;;-0.20;99.90;;;;;;4996378;28;20045;-72
2021/12/11 09:09:33;;;;;;;34.58;20.42;;;-0.20;99.90;;;;;;4996333;28;20038;-72
2021/12/11 09:12:05;;;;;;;30.65;20.60;;;-0.10;99.90;;;;;;4996277;28;20041;-73
2021/12/11 09:14:44;;;;;;;33.22;21.95;;;-0.10;99.90;;;;;;4995741;28;20164;-72
2021/12/11 09:17:12;;;;;;;37.60;22.65;;;-0.10;99.90;;;;;;4995788;28;20046;-72
2021/12/11 09:19:42;;;;;;;35.50;22.30;;;0.00;99.90;;;;;;4995966;28;20042;-72
2021/12/11 09:22:12;;;;;;;36.75;22.52;;;0.00;99.90;;;;;;4996818;28;20049;-73
2021/12/11 09:25:03;;;;;;;35.13;23.10;;;0.10;99.90;;;;;;4995810;28;20042;-73
2021/12/11 09:27:52;;;;;;;35.28;22.50;;;0.20;99.90;;;;;;4995981;28;20054;-73
2021/12/11 09:30:30;;;;;;;33.95;23.05;;;0.30;99.90;;;;;;4979008;28;20121;-73
2021/12/11 09:33:01;;;;;;;36.83;22.98;;;0.40;99.90;;;;;;4995691;28;20053;-73
2021/12/11 09:35:30;;;;;;;44.92;23.90;;;0.40;99.90;;;;;;4979644;28;20467;-72
2021/12/11 09:38:02;;;;;;;33.90;23.33;;;0.50;99.90;;;;;;4995766;28;20037;-73
2021/12/11 09:40:36;;;;;;;34.00;24.60;;;0.60;99.90;;;;;;5012342;28;20125;-72
2021/12/11 09:43:02;;;;;;;39.80;26.00;;;0.70;99.90;;;;;;4995800;28;20081;-72
2021/12/11 09:45:39;;;;;;;34.70;24.95;;;0.80;99.90;;;;;;4996478;28;20050;-73
2021/12/11 09:48:10;;;;;;;35.65;25.48;;;0.90;99.90;;;;;;4996532;28;20136;-73
2021/12/11 09:50:46;;;;;;;37.50;24.02;;;0.90;99.90;;;;;;4995787;28;20050;-73
2021/12/11 09:53:14;;;;;;;41.47;25.45;;;1.00;99.90;;;;;;4995847;28;20510;-73
2021/12/11 09:55:40;;;;;;;37.33;25.27;;;1.00;99.90;;;;;;4996362;28;20073;-73
2021/12/11 09:58:11;;;;;;;38.17;26.88;;;1.10;99.90;;;;;;4996203;28;20069;-74
2021/12/11 10:00:44;;;;;;;36.33;25.10;;;1.10;99.90;;;;;;4996516;28;20045;-74
2021/12/11 10:03:12;;;;;;;37.58;25.92;;;1.10;99.90;;;;;;4997212;28;20164;-74
2021/12/11 10:05:45;;;;;;;36.90;25.98;;;1.10;99.90;;;;;;4996763;28;20387;-74
2021/12/11 10:08:29;;;;;;;35.75;24.83;;;1.20;99.90;;;;;;4980482;28;20465;-74
2021/12/11 10:11:14;;;;;;;42.17;26.27;;;1.30;99.90;;;;;;4980398;28;20085;-75
2021/12/11 10:13:48;;;;;;;40.75;24.73;;;1.40;99.90;;;;;;5017652;23;20046;-71
2021/12/11 10:16:18;;;;;;;36.20;25.88;;;1.40;99.90;;;;;;4993586;28;20043;-72
2021/12/11 10:18:44;;;;;;;34.92;25.83;;;1.50;99.90;;;;;;4993851;28;20035;-71
2021/12/11 10:21:18;;;;;;;39.33;26.98;;;1.60;99.90;;;;;;4994250;28;20043;-72
2021/12/11 10:23:47;;;;;;;42.15;26.38;;;1.70;99.90;;;;;;4994671;28;20136;-71
2021/12/11 10:26:15;;;;;;;35.60;26.23;;;1.80;99.90;;;;;;4994228;28;20045;-72
2021/12/11 10:28:45;;;;;;;37.70;26.17;;;1.90;99.90;;;;;;4978037;28;20042;-72
2021/12/11 10:31:19;;;;;;;34.60;25.63;;;1.90;99.90;;;;;;4994300;28;20046;-71
2021/12/11 10:33:45;;;;;;;40.25;28.10;;;2.00;99.90;;;;;;4978069;28;20034;-72
2021/12/11 10:36:14;;;;;;;36.60;27.25;;;2.10;99.90;;;;;;4994349;28;20565;-72
2021/12/11 10:38:41;;;;;;;36.78;27.95;;;2.20;99.90;;;;;;4994587;28;20066;-72
2021/12/11 10:41:10;;;;;;;44.33;29.02;;;2.20;99.90;;;;;;4994223;28;20044;-72
2021/12/11 10:43:46;;;;;;;39.03;27.73;;;2.20;99.90;;;;;;4998142;28;20037;-71
2021/12/11 10:46:14;;;;;;;37.08;27.20;;;2.30;99.90;;;;;;4997787;28;20131;-71
2021/12/11 10:48:42;;;;;;;45.92;29.15;;;2.30;99.90;;;;;;4997486;28;20042;-71
2021/12/11 10:51:10;;;;;;;40.45;27.58;;;2.30;99.90;;;;;;4997334;28;20111;-71
2021/12/11 10:53:37;;;;;;;38.65;28.40;;;2.30;99.90;;;;;;4997861;28;20100;-72
2021/12/11 10:56:06;;;;;;;41.55;29.38;;;2.40;99.90;;;;;;4982010;28;20081;-72
2021/12/11 10:58:40;;;;;;;45.35;29.08;;;2.40;99.90;;;;;;4997387;28;20038;-72
2021/12/11 11:01:19;;;;;;;41.85;28.60;;;2.40;99.90;;;;;;4981157;28;20046;-71
2021/12/11 11:03:53;;;;;;;39.15;29.10;;;2.50;99.90;;;;;;4997697;28;20054;-71
2021/12/11 11:06:19;;;;;;;37.75;28.50;;;2.60;99.90;;;;;;4981261;28;20054;-72
2021/12/11 11:08:46;;;;;;;41.15;28.48;;;2.70;99.90;;;;;;4997430;28;20042;-72
2021/12/11 11:11:16;;;;;;;40.05;29.17;;;2.90;99.90;;;;;;4997917;28;20038;-71
2021/12/11 11:13:42;;;;;;;39.65;28.05;;;3.10;99.90;;;;;;4980763;28;20554;-71
2021/12/11 11:16:08;;;;;;;33.58;25.67;;;3.30;99.90;;;;;;4981308;28;20577;-72
2021/12/11 11:18:34;;;;;;;36.72;26.60;;;3.80;99.90;;;;;;4997652;28;20042;-72
2021/12/11 11:21:10;;;;;;;34.33;24.88;;;4.40;99.90;;;;;;4997936;28;20042;-72
2021/12/11 11:23:36;;;;;;;34.13;24.50;;;5.10;99.90;;;;;;4982428;28;20050;-71
2021/12/11 11:26:08;;;;;;;33.72;23.27;;;5.70;98.60;;;;;;4982198;28;20445;-72
2021/12/11 11:28:35;;;;;;;36.22;24.42;;;6.00;97.50;;;;;;4998739;28;20129;-72
2021/12/11 11:31:28;;;;;;;30.38;24.05;;;6.10;97.20;;;;;;4998534;28;20038;-71
2021/12/11 11:33:54;;;;;;;33.13;23.38;;;6.50;96.40;;;;;;4981153;28;20038;-72
2021/12/11 11:36:23;;;;;;;29.23;22.40;;;6.80;95.60;;;;;;4996931;28;20073;-72
2021/12/11 11:38:54;;;;;;;28.33;22.67;;;6.50;95.30;;;;;;4980167;28;20073;-73
2021/12/11 11:41:28;;;;;;;30.27;21.88;;;6.50;95.70;;;;;;4996065;28;20038;-73
2021/12/11 11:43:54;;;;;;;30.25;23.20;;;6.40;95.70;;;;;;4979642;28;20462;-72
2021/12/11 11:46:22;;;;;;;28.27;23.08;;;6.60;95.60;;;;;;4995737;28;20494;-72
2021/12/11 11:48:49;;;;;;;29.33;23.27;;;6.90;95.10;;;;;;4995308;28;20046;-72
2021/12/11 11:51:32;;;;;;;29.63;22.90;;;6.70;94.80;;;;;;4995272;28;20142;-72
2021/12/11 11:53:58;;;;;;;29.58;21.52;;;6.70;94.70;;;;;;4994561;28;20045;-72
2021/12/11 11:56:28;;;;;;;30.45;21.95;;;6.60;95.20;;;;;;4994663;28;20042;-72
2021/12/11 11:58:54;;;;;;;30.45;22.10;;;6.90;95.00;;;;;;4978710;28;20042;-73
2021/12/11 12:01:43;;;;;;;31.63;22.42;;;7.10;94.50;;;;;;4978629;28;20030;-72
2021/12/11 12:04:11;;;;;;;28.65;21.52;;;7.10;93.50;;;;;;4978670;28;20046;-72
2021/12/11 12:06:38;;;;;;;32.75;21.90;;;7.30;93.80;;;;;;4995247;28;20042;-73
2021/12/11 12:09:07;;;;;;;29.13;22.67;;;7.70;93.30;;;;;;4995551;28;20046;-73
2021/12/11 12:11:36;;;;;;;29.90;21.35;;;8.00;92.40;;;;;;4995185;28;20418;-73
2021/12/11 12:14:04;;;;;;;27.15;21.27;;;8.20;91.80;;;;;;4995364;28;20035;-73
2021/12/11 12:16:32;;;;;;;32.38;21.55;;;8.30;91.80;;;;;;4995407;28;20041;-73
2021/12/11 12:18:58;;;;;;;30.35;22.08;;;8.70;91.50;;;;;;4996030;28;20205;-74
2021/12/11 12:21:25;;;;;;;30.73;21.75;;;9.10;90.60;;;;;;4995149;28;20038;-73
2021/12/11 12:23:51;;;;;;;33.22;21.27;;;9.50;89.10;;;;;;4978562;28;20053;-72
2021/12/11 12:26:28;;;;;;;25.98;20.85;;;9.90;87.00;;;;;;4978406;28;20080;-73
2021/12/11 12:28:55;;;;;;;30.27;20.95;;;10.20;84.50;;;;;;4978094;28;20049;-73
2021/12/11 12:31:28;;;;;;;30.05;21.42;;;9.80;84.90;;;;;;4994563;28;20410;-73
2021/12/11 12:33:55;;;;;;;32.63;22.20;;;8.80;87.00;;;;;;4994202;28;20038;-73
2021/12/11 12:36:21;;;;;;;31.65;20.80;;;7.90;90.50;;;;;;4994279;28;20042;-74
2021/12/11 12:38:48;;;;;;;29.00;19.63;;;7.20;92.10;;;;;;4994473;28;20045;-72
2021/12/11 12:41:17;;;;;;;33.13;21.30;;;6.60;93.40;;;;;;4978873;28;20138;-73
2021/12/11 12:44:17;;;;;;;32.00;21.65;;;6.20;94.50;;;;;;4978478;28;20046;-73
2021/12/11 12:46:51;;;;;;;33.40;21.88;;;5.90;95.40;;;;;;4953225;28;20046;-72
2021/12/11 12:49:18;;;;;;;33.30;21.65;;;5.60;96.00;;;;;;4977771;28;20038;-73
2021/12/11 12:51:46;;;;;;;32.40;21.25;;;5.40;96.50;;;;;;4993604;28;20410;-73
2021/12/11 12:54:14;;;;;;;31.00;20.02;;;5.20;96.80;;;;;;4993658;28;20096;-73
2021/12/11 12:57:01;;;;;;;33.80;21.40;;;5.10;97.30;;;;;;4993913;28;20506;-73
2021/12/11 12:59:35;;;;;;;35.20;22.38;;;5.00;97.60;;;;;;4994131;28;20038;-73
2021/12/11 13:02:08;;;;;;;32.60;20.70;;;5.00;97.70;;;;;;4994035;28;20038;-73
2021/12/11 13:04:39;;;;;;;36.15;22.92;;;5.00;98.00;;;;;;4977281;28;20042;-73
2021/12/11 13:07:08;;;;;;;38.55;23.13;;;4.90;98.00;;;;;;4993530;28;20081;-73